Time;durP1;ratioP1;P1;durP2;ratioP2;P2;SDS_P1;SDS_P2;PMS_P1;PMS_P2;Temp;Humidity;BMP_temperature;BMP_pressure;BME280_temperature;BME280_humidity;BME280_pressure;Samples;Min_cycle;Max_cycle;Signal;HPM_P1;HPM_P2
2023/11/27 00:00:46;;;;;;;37.37;19.33;;;6.10;99.90;;;;;;5066456;28;38470;-85
2023/11/27 00:03:13;;;;;;;34.73;19.87;;;6.10;99.90;;;;;;5070392;28;39435;-85
2023/11/27 00:05:39;;;;;;;32.33;18.73;;;6.10;99.90;;;;;;5078647;28;39636;-84
2023/11/27 00:08:08;;;;;;;31.23;18.60;;;6.20;99.90;;;;;;5055383;28;40030;-84
2023/11/27 00:10:34;;;;;;;29.43;17.60;;;6.20;99.90;;;;;;5071979;28;37386;-82
2023/11/27 00:13:01;;;;;;;30.90;16.67;;;6.20;99.90;;;;;;5062883;28;39386;-82
2023/11/27 00:15:27;;;;;;;34.37;18.53;;;6.10;99.90;;;;;;5070602;28;47173;-85
2023/11/27 00:17:53;;;;;;;32.10;17.27;;;6.20;99.90;;;;;;5065517;28;39599;-86
2023/11/27 00:20:20;;;;;;;26.57;15.97;;;6.20;99.90;;;;;;5065846;28;40443;-85
2023/11/27 00:22:49;;;;;;;30.53;16.73;;;6.20;99.90;;;;;;5060691;28;37628;-85
2023/11/27 00:25:15;;;;;;;26.87;15.50;;;6.20;99.90;;;;;;5053045;28;38025;-85
2023/11/27 00:27:42;;;;;;;25.20;15.30;;;6.30;99.90;;;;;;5054524;28;40041;-85
2023/11/27 00:30:08;;;;;;;32.17;15.47;;;6.30;99.90;;;;;;5060949;28;40108;-83
2023/11/27 00:32:34;;;;;;;25.17;14.53;;;6.30;99.90;;;;;;5061543;28;38223;-85
2023/11/27 00:35:01;;;;;;;22.90;14.50;;;6.30;99.90;;;;;;5063613;28;37712;-86
2023/11/27 00:37:30;;;;;;;24.03;14.93;;;6.30;99.90;;;;;;5069676;28;38777;-85
2023/11/27 00:39:57;;;;;;;20.23;13.37;;;6.30;99.90;;;;;;5061845;28;38260;-85
2023/11/27 00:42:24;;;;;;;24.43;12.87;;;6.30;99.90;;;;;;5060546;28;38752;-84
2023/11/27 00:44:50;;;;;;;28.20;14.80;;;6.30;99.90;;;;;;5056542;28;39795;-84
2023/11/27 00:47:17;;;;;;;26.57;14.10;;;6.30;99.90;;;;;;5059344;28;38729;-84
2023/11/27 00:49:43;;;;;;;24.57;14.87;;;6.30;99.90;;;;;;5056688;28;39643;-84
2023/11/27 00:52:10;;;;;;;27.80;15.23;;;6.30;99.90;;;;;;5061724;28;38405;-85
2023/11/27 00:54:36;;;;;;;24.87;13.47;;;6.20;99.90;;;;;;5060226;28;37527;-84
2023/11/27 00:57:02;;;;;;;30.57;15.03;;;6.20;99.90;;;;;;5056591;28;40727;-84
2023/11/27 00:59:28;;;;;;;26.67;15.97;;;6.20;99.90;;;;;;5065402;28;40013;-85
2023/11/27 01:01:54;;;;;;;27.23;14.73;;;6.20;99.90;;;;;;5058893;28;39029;-85
2023/11/27 01:04:20;;;;;;;21.83;15.63;;;6.10;99.90;;;;;;5063360;28;37251;-85
2023/11/27 01:06:51;;;;;;;33.40;16.73;;;6.10;99.90;;;;;;5062645;28;39761;-85
2023/11/27 01:09:18;;;;;;;26.30;16.23;;;6.10;99.90;;;;;;5069102;28;39317;-86
2023/11/27 01:11:44;;;;;;;30.20;16.27;;;6.00;99.90;;;;;;5065196;28;37894;-86
2023/11/27 01:14:10;;;;;;;27.13;16.23;;;6.10;99.90;;;;;;5066296;28;38995;-86
2023/11/27 01:16:36;;;;;;;31.13;16.13;;;6.10;99.90;;;;;;5061588;28;40688;-85
2023/11/27 01:19:02;;;;;;;28.40;16.67;;;6.00;99.90;;;;;;5071103;28;39107;-83
2023/11/27 01:21:29;;;;;;;22.73;16.53;;;6.00;99.90;;;;;;5065436;28;38638;-88
2023/11/27 01:23:55;;;;;;;25.33;17.23;;;6.00;99.90;;;;;;5064354;28;37477;-84
2023/11/27 01:26:21;;;;;;;29.67;18.10;;;6.00;99.90;;;;;;5062782;28;36517;-84
2023/11/27 01:28:47;;;;;;;24.80;15.67;;;6.00;99.90;;;;;;5052715;28;39362;-84
2023/11/27 01:31:13;;;;;;;25.90;17.43;;;6.00;99.90;;;;;;5056152;28;38205;-84
2023/11/27 01:33:39;;;;;;;25.73;16.67;;;6.00;99.90;;;;;;5060856;28;37507;-84
2023/11/27 01:36:06;;;;;;;29.30;16.13;;;6.00;99.90;;;;;;5062084;28;38207;-84
2023/11/27 01:38:32;;;;;;;27.30;15.90;;;6.00;99.90;;;;;;5066294;28;37759;-84
2023/11/27 01:40:58;;;;;;;34.47;17.33;;;6.00;99.90;;;;;;5063289;28;40630;-84
2023/11/27 01:43:24;;;;;;;25.90;16.53;;;5.90;99.90;;;;;;5058870;28;37721;-84
2023/11/27 01:46:16;;;;;;;24.93;16.03;;;6.00;99.90;;;;;;5056759;28;38472;-84
2023/11/27 01:48:43;;;;;;;22.70;15.80;;;6.00;99.90;;;;;;5053639;28;47671;-85
2023/11/27 01:51:09;;;;;;;23.03;15.77;;;5.90;99.90;;;;;;5057125;28;37601;-86
2023/11/27 01:53:35;;;;;;;22.63;15.30;;;5.90;99.90;;;;;;5059005;28;36708;-86
2023/11/27 01:56:02;;;;;;;28.67;17.00;;;5.90;99.90;;;;;;5062022;28;41104;-85
2023/11/27 01:58:28;;;;;;;26.97;16.63;;;5.80;99.90;;;;;;5057397;28;47397;-86
2023/11/27 02:03:30;;;;;;;25.53;15.63;;;5.80;99.90;;;;;;5250363;22;20078;-77
2023/11/27 02:05:56;;;;;;;23.53;15.47;;;5.80;99.90;;;;;;5095271;28;39378;-77
2023/11/27 02:08:28;;;;;;;23.23;15.57;;;5.80;99.90;;;;;;5082288;28;37158;-78
2023/11/27 02:10:55;;;;;;;22.50;15.88;;;5.80;99.90;;;;;;5082922;28;37080;-77
2023/11/27 02:13:21;;;;;;;21.00;14.33;;;5.80;99.90;;;;;;5080266;28;37854;-79
2023/11/27 02:15:48;;;;;;;21.67;13.83;;;5.80;99.90;;;;;;5077912;28;37959;-78
2023/11/27 02:18:14;;;;;;;20.83;15.20;;;5.80;99.90;;;;;;5071430;28;38775;-78
2023/11/27 02:20:40;;;;;;;26.70;14.83;;;5.80;99.90;;;;;;5077346;28;39073;-79
2023/11/27 02:23:17;;;;;;;20.83;14.20;;;5.80;99.90;;;;;;5073879;28;38283;-79
2023/11/27 02:25:43;;;;;;;20.73;14.50;;;5.80;99.90;;;;;;5062281;28;40310;-79
2023/11/27 02:28:10;;;;;;;19.17;14.20;;;5.80;99.90;;;;;;5071298;28;39354;-80
2023/11/27 02:30:36;;;;;;;19.53;13.73;;;5.80;99.90;;;;;;5075619;28;38220;-80
2023/11/27 02:33:02;;;;;;;20.13;14.07;;;5.80;99.90;;;;;;5073765;28;36696;-80
2023/11/27 02:35:31;;;;;;;21.00;14.37;;;5.80;99.90;;;;;;5071584;28;39757;-80
2023/11/27 02:37:57;;;;;;;20.97;14.87;;;5.80;99.90;;;;;;5076840;28;37990;-80
2023/11/27 02:40:23;;;;;;;22.60;15.63;;;5.80;99.90;;;;;;5079050;28;38933;-80
2023/11/27 02:42:49;;;;;;;22.27;15.10;;;5.80;99.90;;;;;;5075442;28;36396;-79
2023/11/27 02:45:18;;;;;;;20.23;15.70;;;5.80;99.90;;;;;;5077484;28;37610;-80
2023/11/27 02:47:44;;;;;;;25.17;15.97;;;5.80;99.90;;;;;;5079351;28;38602;-80
2023/11/27 02:50:11;;;;;;;19.30;15.17;;;5.80;99.90;;;;;;5082561;28;38520;-81
2023/11/27 02:52:37;;;;;;;24.97;16.27;;;5.80;99.90;;;;;;5080538;28;37954;-80
2023/11/27 02:55:05;;;;;;;21.93;15.83;;;5.80;99.90;;;;;;5076324;28;39178;-79
2023/11/27 02:57:35;;;;;;;22.27;16.07;;;5.80;99.90;;;;;;5077558;28;48971;-81
2023/11/27 03:00:03;;;;;;;26.70;17.20;;;5.80;99.90;;;;;;5079772;28;39051;-80
2023/11/27 03:02:32;;;;;;;26.67;17.90;;;5.80;99.90;;;;;;5078842;28;36034;-81
2023/11/27 03:04:58;;;;;;;25.40;18.70;;;5.70;99.90;;;;;;5075380;28;38459;-80
2023/11/27 03:07:24;;;;;;;27.53;19.50;;;5.70;99.90;;;;;;5081792;28;38358;-80
2023/11/27 03:09:53;;;;;;;24.47;18.43;;;5.70;99.90;;;;;;5077958;28;37671;-80
2023/11/27 03:12:23;;;;;;;25.50;18.07;;;5.70;99.90;;;;;;5076753;28;37868;-79
2023/11/27 03:14:49;;;;;;;25.97;18.83;;;5.70;99.90;;;;;;5079659;28;36883;-80
2023/11/27 03:17:15;;;;;;;21.63;17.33;;;5.70;99.90;;;;;;5078712;28;39203;-80
2023/11/27 03:19:47;;;;;;;27.97;19.03;;;5.70;99.90;;;;;;5070040;28;38893;-81
2023/11/27 03:22:13;;;;;;;29.50;19.35;;;5.70;99.90;;;;;;5073372;28;35970;-80
2023/11/27 03:24:39;;;;;;;25.43;18.10;;;5.70;99.90;;;;;;5077733;28;38886;-81
2023/11/27 03:27:06;;;;;;;27.10;18.70;;;5.70;99.90;;;;;;5077235;28;38853;-79
2023/11/27 03:29:33;;;;;;;21.50;16.50;;;5.70;99.90;;;;;;5076367;28;37204;-80
2023/11/27 03:31:59;;;;;;;24.37;16.93;;;5.70;99.90;;;;;;5069958;28;36844;-81
2023/11/27 03:34:25;;;;;;;28.57;20.07;;;5.70;99.90;;;;;;5056948;28;38287;-81
2023/11/27 03:36:54;;;;;;;29.10;19.33;;;5.70;99.90;;;;;;5078256;28;38362;-80
2023/11/27 03:39:21;;;;;;;31.87;23.17;;;5.70;99.90;;;;;;5077349;28;38405;-80
2023/11/27 03:41:50;;;;;;;35.10;24.50;;;5.70;99.90;;;;;;5080287;28;38046;-80
2023/11/27 03:44:17;;;;;;;31.90;22.37;;;5.70;99.90;;;;;;5077358;28;37942;-80
2023/11/27 03:46:46;;;;;;;28.47;21.23;;;5.70;99.90;;;;;;5079642;28;37497;-81
2023/11/27 03:49:17;;;;;;;24.07;19.00;;;5.70;99.90;;;;;;5066737;28;38521;-82
2023/11/27 03:51:43;;;;;;;23.17;18.50;;;5.70;99.90;;;;;;5097328;28;38372;-81
2023/11/27 03:54:11;;;;;;;26.17;20.63;;;5.60;99.90;;;;;;5085370;28;40344;-81
2023/11/27 03:56:37;;;;;;;25.97;19.67;;;5.60;99.90;;;;;;5080048;28;37933;-81
2023/11/27 03:59:07;;;;;;;21.13;17.10;;;5.60;99.90;;;;;;5076034;28;37102;-80
2023/11/27 04:01:36;;;;;;;22.47;16.73;;;5.60;99.90;;;;;;5079646;28;36250;-80
2023/11/27 04:04:04;;;;;;;20.90;17.30;;;5.60;99.90;;;;;;5077598;28;38166;-80
2023/11/27 04:06:31;;;;;;;19.83;16.03;;;5.60;99.90;;;;;;5079562;28;39147;-80
2023/11/27 04:09:01;;;;;;;19.97;16.37;;;5.60;99.90;;;;;;5082838;28;38497;-79
2023/11/27 04:11:27;;;;;;;18.93;15.13;;;5.60;99.90;;;;;;5081122;28;47276;-79
2023/11/27 04:13:57;;;;;;;17.50;13.97;;;5.60;99.90;;;;;;5080619;28;39926;-81
2023/11/27 04:16:24;;;;;;;20.63;15.90;;;5.50;99.90;;;;;;5070763;28;39007;-80
2023/11/27 04:18:50;;;;;;;17.80;15.23;;;5.60;99.90;;;;;;5081713;28;39252;-81
2023/11/27 04:21:18;;;;;;;18.07;14.90;;;5.50;99.90;;;;;;5075190;28;36554;-79
2023/11/27 04:23:53;;;;;;;23.10;16.90;;;5.60;99.90;;;;;;5073105;28;38605;-80
2023/11/27 04:26:21;;;;;;;19.87;16.83;;;5.60;99.90;;;;;;5075115;28;37515;-80
2023/11/27 04:28:50;;;;;;;24.27;20.37;;;5.60;99.90;;;;;;5078234;28;39442;-80
2023/11/27 04:31:16;;;;;;;24.77;21.07;;;5.50;99.90;;;;;;5074057;28;36784;-79
2023/11/27 04:33:43;;;;;;;24.77;20.57;;;5.40;99.90;;;;;;5075068;28;37643;-80
2023/11/27 04:36:09;;;;;;;25.90;21.50;;;5.50;99.90;;;;;;5070267;28;38619;-81
2023/11/27 04:38:36;;;;;;;28.10;21.50;;;5.50;99.90;;;;;;5076429;28;36829;-80
2023/11/27 04:41:02;;;;;;;26.27;22.53;;;5.50;99.90;;;;;;5075899;28;36695;-78
2023/11/27 04:43:30;;;;;;;33.47;25.57;;;5.50;99.90;;;;;;5079185;28;39649;-80
2023/11/27 04:45:57;;;;;;;34.10;27.40;;;5.50;99.90;;;;;;5078144;28;38792;-81
2023/11/27 04:48:23;;;;;;;26.83;21.70;;;5.40;99.90;;;;;;5076758;28;39130;-79
2023/11/27 04:50:49;;;;;;;24.70;21.57;;;5.40;99.90;;;;;;5074494;28;38126;-80
2023/11/27 04:53:17;;;;;;;23.13;20.30;;;5.40;99.90;;;;;;5076498;28;38895;-80
2023/11/27 04:55:43;;;;;;;28.47;22.20;;;5.40;99.90;;;;;;5074390;28;39088;-79
2023/11/27 04:58:12;;;;;;;27.53;22.70;;;5.40;99.90;;;;;;5074955;28;38804;-79
2023/11/27 05:00:38;;;;;;;21.70;19.50;;;5.40;99.90;;;;;;5070778;28;36809;-80
2023/11/27 05:03:04;;;;;;;26.17;21.50;;;5.40;99.90;;;;;;5073339;28;38924;-79
2023/11/27 05:05:33;;;;;;;23.77;20.27;;;5.40;99.90;;;;;;5066303;28;37910;-79
2023/11/27 05:08:02;;;;;;;27.90;21.90;;;5.40;99.90;;;;;;5069661;28;38228;-78
2023/11/27 05:10:28;;;;;;;23.47;20.63;;;5.40;99.90;;;;;;5069549;28;46999;-81
2023/11/27 05:12:54;;;;;;;27.87;22.43;;;5.40;99.90;;;;;;5065535;28;36529;-81
2023/11/27 05:15:24;;;;;;;31.10;23.43;;;5.40;99.90;;;;;;5073852;28;38125;-79
2023/11/27 05:17:54;;;;;;;28.93;22.43;;;5.40;99.90;;;;;;5072010;28;38703;-78
2023/11/27 05:20:22;;;;;;;26.23;21.97;;;5.40;99.90;;;;;;5075233;28;37460;-79
2023/11/27 05:22:48;;;;;;;27.43;21.50;;;5.40;99.90;;;;;;5073177;28;39045;-80
2023/11/27 05:25:14;;;;;;;24.33;21.70;;;5.40;99.90;;;;;;5071441;28;37335;-79
2023/11/27 05:27:43;;;;;;;25.50;22.30;;;5.40;99.90;;;;;;5069699;28;38224;-80
2023/11/27 05:30:10;;;;;;;24.23;20.60;;;5.40;99.90;;;;;;5069879;28;39387;-79
2023/11/27 05:32:37;;;;;;;24.67;20.63;;;5.50;99.90;;;;;;5069807;28;38951;-78
2023/11/27 05:35:04;;;;;;;27.30;23.00;;;5.40;99.90;;;;;;5071818;28;37557;-78
2023/11/27 05:37:30;;;;;;;25.50;22.37;;;5.50;99.90;;;;;;5071965;28;48789;-79
2023/11/27 05:39:56;;;;;;;24.87;20.77;;;5.50;99.90;;;;;;5066740;28;35979;-79
2023/11/27 05:42:26;;;;;;;23.63;20.03;;;5.40;99.90;;;;;;5065403;28;37479;-79
2023/11/27 05:44:59;;;;;;;23.03;19.23;;;5.50;99.90;;;;;;5070143;28;38825;-79
2023/11/27 05:47:25;;;;;;;22.27;19.30;;;5.50;99.90;;;;;;5065393;28;38825;-79
2023/11/27 05:49:52;;;;;;;24.27;20.30;;;5.60;99.90;;;;;;5067529;28;37805;-80
2023/11/27 05:52:19;;;;;;;23.30;20.20;;;5.60;99.90;;;;;;5063941;28;38362;-80
2023/11/27 05:54:45;;;;;;;23.53;19.03;;;5.60;99.90;;;;;;5071752;28;38608;-80
2023/11/27 05:57:11;;;;;;;21.43;18.57;;;5.60;99.90;;;;;;5069237;28;38525;-79
2023/11/27 05:59:37;;;;;;;30.03;22.30;;;5.60;99.90;;;;;;5076358;28;38113;-80
2023/11/27 06:02:04;;;;;;;22.53;18.43;;;5.60;99.90;;;;;;5072634;28;35788;-79
2023/11/27 06:04:35;;;;;;;22.53;17.80;;;5.70;99.90;;;;;;5070536;28;37681;-79
2023/11/27 06:07:02;;;;;;;20.87;17.27;;;5.70;99.90;;;;;;5070553;28;37101;-79
2023/11/27 06:09:29;;;;;;;25.07;18.53;;;5.70;99.90;;;;;;5072029;28;37041;-80
2023/11/27 06:11:57;;;;;;;18.93;15.43;;;5.70;99.90;;;;;;5079436;28;39219;-80
2023/11/27 06:14:23;;;;;;;21.57;17.83;;;5.80;99.90;;;;;;5073952;28;39795;-80
2023/11/27 06:16:51;;;;;;;20.57;16.93;;;5.80;99.90;;;;;;5077659;28;37890;-80
2023/11/27 06:19:18;;;;;;;21.53;17.03;;;5.80;99.90;;;;;;5087453;28;38797;-81
2023/11/27 06:21:47;;;;;;;20.07;16.23;;;5.80;99.90;;;;;;5076502;28;37741;-80
2023/11/27 06:24:14;;;;;;;20.03;16.87;;;5.80;99.90;;;;;;5070763;28;37887;-79
2023/11/27 06:26:40;;;;;;;23.40;18.73;;;5.90;99.90;;;;;;5067252;28;37033;-79
2023/11/27 06:29:06;;;;;;;22.97;19.43;;;5.90;99.90;;;;;;5070046;28;37095;-80
2023/11/27 06:31:32;;;;;;;29.03;21.30;;;5.90;99.90;;;;;;5084770;28;38245;-80
2023/11/27 06:36:34;;;;;;;22.47;19.27;;;5.90;99.90;;;;;;5577274;22;20044;-81
2023/11/27 06:39:00;;;;;;;25.93;20.00;;;6.00;99.90;;;;;;5098095;28;36603;-81
2023/11/27 06:41:30;;;;;;;25.83;19.57;;;6.00;99.90;;;;;;5107522;28;47965;-80
2023/11/27 06:43:56;;;;;;;25.83;20.47;;;6.00;99.90;;;;;;5108423;28;37795;-79
2023/11/27 06:46:23;;;;;;;27.80;21.97;;;6.00;99.90;;;;;;5103228;28;38095;-81
2023/11/27 06:48:50;;;;;;;24.00;18.63;;;6.10;99.90;;;;;;5100966;28;36689;-79
2023/11/27 06:51:19;;;;;;;26.97;20.23;;;6.10;99.90;;;;;;5095138;28;37942;-82
2023/11/27 06:53:45;;;;;;;25.13;19.07;;;6.10;99.90;;;;;;5108887;27;38866;-78
2023/11/27 06:56:11;;;;;;;24.30;20.67;;;6.10;99.90;;;;;;5100162;28;36822;-81
2023/11/27 06:58:41;;;;;;;21.30;18.17;;;6.10;99.90;;;;;;5108293;28;37569;-81
2023/11/27 07:01:13;;;;;;;22.63;18.43;;;6.10;99.90;;;;;;5103952;28;40327;-81
2023/11/27 07:03:48;;;;;;;27.48;21.13;;;6.10;99.90;;;;;;5104535;28;39728;-80
2023/11/27 07:06:25;;;;;;;19.60;17.20;;;6.20;99.90;;;;;;5104683;28;38570;-81
2023/11/27 07:09:07;;;;;;;26.10;19.50;;;6.10;99.90;;;;;;5098182;28;39416;-81
2023/11/27 07:11:40;;;;;;;26.27;18.97;;;6.20;99.90;;;;;;5091289;28;48622;-81
2023/11/27 07:14:10;;;;;;;24.83;19.80;;;6.20;99.90;;;;;;5102035;28;39790;-81
2023/11/27 07:16:48;;;;;;;20.10;17.67;;;6.20;99.90;;;;;;5109133;28;37906;-81
2023/11/27 07:19:20;;;;;;;26.23;19.17;;;6.20;99.90;;;;;;5109154;28;37180;-80
2023/11/27 07:22:16;;;;;;;25.53;21.60;;;6.20;99.90;;;;;;5108482;28;38882;-80
2023/11/27 07:24:54;;;;;;;22.70;19.13;;;6.20;99.90;;;;;;5012453;28;49408;-80
2023/11/27 07:27:28;;;;;;;26.20;22.13;;;6.20;99.90;;;;;;5095562;28;39453;-81
2023/11/27 07:30:09;;;;;;;25.50;20.90;;;6.30;99.90;;;;;;5108752;28;38148;-80
2023/11/27 07:32:52;;;;;;;22.37;19.83;;;6.30;99.90;;;;;;5107183;28;47663;-81
2023/11/27 07:35:23;;;;;;;25.42;20.23;;;6.30;99.90;;;;;;5106747;28;38862;-81
2023/11/27 07:37:53;;;;;;;26.57;22.77;;;6.40;99.90;;;;;;5106786;28;38320;-81
2023/11/27 07:40:19;;;;;;;27.13;21.80;;;6.40;99.90;;;;;;5098259;28;37492;-80
2023/11/27 07:42:45;;;;;;;24.93;20.80;;;6.40;99.90;;;;;;5095644;28;38678;-80
2023/11/27 07:45:11;;;;;;;27.27;22.10;;;6.50;99.90;;;;;;5098014;28;37401;-79
2023/11/27 07:47:38;;;;;;;22.33;18.03;;;6.50;99.90;;;;;;5105268;28;37207;-80
2023/11/27 07:50:06;;;;;;;23.97;19.07;;;6.50;99.90;;;;;;5096859;28;38321;-80
2023/11/27 07:52:36;;;;;;;22.47;19.40;;;6.50;99.90;;;;;;5094533;28;45946;-80
2023/11/27 07:55:08;;;;;;;25.83;18.73;;;6.50;99.90;;;;;;5094600;28;39576;-80
2023/11/27 07:57:34;;;;;;;20.03;17.50;;;6.60;99.90;;;;;;5095388;28;47415;-81
2023/11/27 08:00:02;;;;;;;18.63;16.67;;;6.60;99.90;;;;;;5093475;28;37478;-80
2023/11/27 08:02:29;;;;;;;18.33;16.40;;;6.60;99.90;;;;;;5091804;28;37990;-79
2023/11/27 08:04:55;;;;;;;20.23;17.00;;;6.60;99.90;;;;;;5088424;28;38888;-79
2023/11/27 08:07:27;;;;;;;15.30;13.63;;;6.70;99.90;;;;;;5087008;28;37561;-79
2023/11/27 08:09:57;;;;;;;19.88;15.15;;;6.70;99.90;;;;;;5096989;28;38651;-79
2023/11/27 08:12:28;;;;;;;15.43;13.67;;;6.70;99.90;;;;;;5081481;28;39166;-79
2023/11/27 08:14:55;;;;;;;18.13;14.10;;;6.80;99.90;;;;;;5087184;28;37208;-79
2023/11/27 08:17:21;;;;;;;15.23;13.37;;;6.80;99.90;;;;;;5095297;28;38890;-78
2023/11/27 08:19:48;;;;;;;19.37;13.37;;;6.80;99.90;;;;;;5087802;28;36472;-80
2023/11/27 08:22:15;;;;;;;16.63;14.93;;;6.80;99.90;;;;;;5090361;28;37874;-79
2023/11/27 08:24:42;;;;;;;15.67;12.77;;;6.80;99.90;;;;;;5095689;28;39028;-79
2023/11/27 08:27:09;;;;;;;16.67;14.57;;;6.80;99.90;;;;;;5095378;28;38286;-78
2023/11/27 08:29:35;;;;;;;13.43;12.07;;;6.80;99.90;;;;;;5102229;28;37993;-77
2023/11/27 08:32:01;;;;;;;15.20;12.73;;;6.80;99.90;;;;;;5100000;28;39147;-77
2023/11/27 08:34:30;;;;;;;15.20;11.77;;;6.90;99.90;;;;;;5126721;27;38656;-79
2023/11/27 08:36:59;;;;;;;13.97;12.43;;;6.80;99.90;;;;;;5107354;28;37217;-79
2023/11/27 08:39:26;;;;;;;13.63;12.23;;;6.80;99.90;;;;;;5089360;28;38209;-80
2023/11/27 08:41:53;;;;;;;14.93;12.97;;;6.90;99.90;;;;;;5106486;28;38362;-79
2023/11/27 08:44:19;;;;;;;17.30;12.93;;;6.90;99.90;;;;;;5105597;28;38223;-79
2023/11/27 08:46:46;;;;;;;13.77;12.37;;;6.90;99.90;;;;;;5106270;28;38412;-79
2023/11/27 08:49:15;;;;;;;15.37;12.60;;;6.90;99.90;;;;;;5089166;28;38235;-80
2023/11/27 08:51:48;;;;;;;13.83;11.43;;;6.90;99.90;;;;;;5099606;28;38872;-79
2023/11/27 08:54:15;;;;;;;;;;;6.90;99.90;;;;;;5107834;28;39108;-79
2023/11/27 08:56:43;;;;;;;15.33;13.17;;;6.90;99.90;;;;;;5107952;28;37359;-79
2023/11/27 08:59:10;;;;;;;14.70;11.63;;;6.90;99.90;;;;;;5104952;28;35570;-79
2023/11/27 09:01:40;;;;;;;12.43;11.13;;;6.90;99.90;;;;;;5101090;28;37732;-79
2023/11/27 09:04:09;;;;;;;17.33;13.83;;;7.00;99.90;;;;;;5101289;28;37874;-79
2023/11/27 09:06:36;;;;;;;15.53;12.50;;;7.00;99.90;;;;;;5078728;28;38964;-79
2023/11/27 09:09:03;;;;;;;15.53;13.47;;;7.00;99.90;;;;;;5117952;28;38143;-77
2023/11/27 09:11:29;;;;;;;13.60;12.07;;;7.00;99.90;;;;;;5101640;28;39309;-79
2023/11/27 09:13:55;;;;;;;16.67;11.77;;;7.00;99.90;;;;;;5100597;28;37661;-79
2023/11/27 09:16:21;;;;;;;16.33;12.33;;;7.00;99.90;;;;;;5093918;28;36900;-80
2023/11/27 09:18:55;;;;;;;15.43;12.30;;;7.00;99.90;;;;;;5093446;28;37584;-79
2023/11/27 09:21:21;;;;;;;17.67;14.00;;;7.00;99.90;;;;;;5100827;28;37797;-80
2023/11/27 09:23:47;;;;;;;17.83;13.07;;;7.00;99.90;;;;;;5098088;28;37803;-77
2023/11/27 09:26:17;;;;;;;13.20;11.83;;;7.10;99.90;;;;;;5151427;22;38349;-80
2023/11/27 09:28:50;;;;;;;13.43;11.87;;;7.10;99.90;;;;;;5094430;28;37883;-81
2023/11/27 09:31:17;;;;;;;12.93;11.43;;;7.10;99.90;;;;;;5089807;28;40052;-80
2023/11/27 09:33:43;;;;;;;14.33;12.87;;;7.10;99.90;;;;;;5094112;28;39697;-79
2023/11/27 09:36:14;;;;;;;13.43;12.03;;;7.10;99.90;;;;;;5090007;28;37138;-80
2023/11/27 09:38:41;;;;;;;12.20;11.00;;;7.10;99.90;;;;;;5092435;28;40030;-79
2023/11/27 09:41:08;;;;;;;15.27;13.60;;;7.10;99.90;;;;;;5090729;28;42574;-80
2023/11/27 09:43:37;;;;;;;14.50;12.93;;;7.10;99.90;;;;;;5094697;28;37288;-80
2023/11/27 09:46:06;;;;;;;19.60;13.73;;;7.20;99.90;;;;;;5089850;28;38588;-79
2023/11/27 09:48:40;;;;;;;13.80;12.30;;;7.20;99.90;;;;;;5094346;27;38884;-77
2023/11/27 09:51:13;;;;;;;15.67;14.07;;;7.20;99.90;;;;;;5108322;28;37624;-79
2023/11/27 09:53:49;;;;;;;14.80;13.27;;;7.30;99.90;;;;;;5092303;28;37667;-80
2023/11/27 09:56:28;;;;;;;21.23;15.70;;;7.30;99.90;;;;;;5092257;28;38482;-80
2023/11/27 09:59:01;;;;;;;13.43;11.97;;;7.30;99.90;;;;;;5095324;28;38110;-79
2023/11/27 10:01:35;;;;;;;14.90;13.30;;;7.30;99.90;;;;;;5085369;28;47739;-80
2023/11/27 10:04:07;;;;;;;14.17;12.67;;;7.30;99.90;;;;;;5084941;28;39854;-77
2023/11/27 10:06:36;;;;;;;14.73;13.32;;;7.40;99.90;;;;;;5083736;28;38297;-80
2023/11/27 10:09:04;;;;;;;15.43;13.80;;;7.40;99.90;;;;;;5081420;28;37922;-79
2023/11/27 10:11:33;;;;;;;15.37;13.77;;;7.40;99.90;;;;;;5083812;28;39183;-79
2023/11/27 10:14:08;;;;;;;17.03;14.43;;;7.40;99.90;;;;;;5084449;28;39089;-79
2023/11/27 10:16:36;;;;;;;15.50;13.90;;;7.40;99.90;;;;;;5083281;28;47780;-78
2023/11/27 10:19:06;;;;;;;18.97;16.93;;;7.40;99.90;;;;;;5079629;28;40064;-79
2023/11/27 10:21:41;;;;;;;15.13;13.60;;;7.50;99.90;;;;;;5074719;28;37773;-76
2023/11/27 10:24:10;;;;;;;16.57;14.80;;;7.50;99.90;;;;;;5083770;28;38113;-77
2023/11/27 10:26:40;;;;;;;14.03;12.63;;;7.50;99.90;;;;;;5097959;28;37516;-78
2023/11/27 10:29:07;;;;;;;14.57;13.17;;;7.50;99.90;;;;;;5085269;28;36951;-79
2023/11/27 10:31:35;;;;;;;14.10;12.77;;;7.50;99.90;;;;;;5085482;28;39488;-79
2023/11/27 10:34:02;;;;;;;14.03;12.50;;;7.60;99.90;;;;;;5087407;28;38631;-79
2023/11/27 10:36:28;;;;;;;14.27;12.93;;;7.50;99.90;;;;;;5086360;28;39576;-79
2023/11/27 10:39:05;;;;;;;13.73;11.83;;;7.60;99.90;;;;;;5091298;28;37770;-79
2023/11/27 10:41:32;;;;;;;14.10;12.70;;;7.60;99.90;;;;;;5079449;28;47565;-78
2023/11/27 10:44:00;;;;;;;12.30;10.67;;;7.60;99.90;;;;;;5080418;28;38723;-79
2023/11/27 10:46:31;;;;;;;15.30;13.70;;;7.70;99.90;;;;;;5076492;28;40358;-79
2023/11/27 10:49:01;;;;;;;14.60;12.97;;;7.60;99.90;;;;;;5084212;28;37905;-78
2023/11/27 10:51:31;;;;;;;12.30;11.00;;;7.60;99.90;;;;;;5080193;28;48847;-79
2023/11/27 10:54:01;;;;;;;11.57;10.47;;;7.60;99.90;;;;;;5078386;28;39242;-78
2023/11/27 10:56:30;;;;;;;11.53;10.43;;;7.60;99.90;;;;;;5088045;28;49246;-79
2023/11/27 10:59:07;;;;;;;9.90;8.90;;;7.60;99.90;;;;;;5084735;28;37541;-80
2023/11/27 11:01:40;;;;;;;9.60;8.60;;;7.60;99.90;;;;;;5095218;28;48275;-78
2023/11/27 11:04:31;;;;;;;10.63;9.53;;;7.70;99.90;;;;;;5072639;28;37570;-78
2023/11/27 11:07:02;;;;;;;13.40;12.07;;;7.70;99.90;;;;;;5071655;28;37471;-79
2023/11/27 11:09:29;;;;;;;13.90;12.40;;;7.70;99.90;;;;;;5082926;28;49392;-79
2023/11/27 11:11:57;;;;;;;10.70;9.60;;;7.70;99.90;;;;;;5085904;28;38465;-79
2023/11/27 11:14:24;;;;;;;8.57;7.87;;;7.70;99.90;;;;;;5088446;28;40613;-79
2023/11/27 11:17:17;;;;;;;10.53;9.53;;;7.70;99.90;;;;;;5079424;28;39539;-80
2023/11/27 11:19:54;;;;;;;10.03;9.13;;;7.80;99.90;;;;;;5084534;28;47589;-79
2023/11/27 11:22:55;;;;;;;11.13;10.10;;;7.80;99.90;;;;;;5084930;28;38221;-80
2023/11/27 11:26:21;;;;;;;10.70;9.63;;;7.80;99.90;;;;;;5090501;28;39090;-79
2023/11/27 11:28:52;;;;;;;8.47;7.67;;;7.90;99.90;;;;;;5011709;28;49034;-80
2023/11/27 11:59:15;;;;;;;11.00;9.93;;;8.00;99.90;;;;;;4999089;28;39082;-80
2023/11/27 12:04:56;;;;;;;11.90;10.63;;;7.90;99.90;;;;;;5062616;28;20048;-76
2023/11/27 12:07:38;;;;;;;12.30;11.03;;;7.90;99.90;;;;;;5053101;28;38793;-76
2023/11/27 12:10:06;;;;;;;13.20;11.90;;;7.90;99.90;;;;;;5051717;28;39811;-76
2023/11/27 12:12:35;;;;;;;13.23;11.80;;;7.90;99.90;;;;;;5063800;28;49174;-76
2023/11/27 12:15:11;;;;;;;13.37;12.13;;;8.00;99.90;;;;;;5068811;28;38073;-77
2023/11/27 12:17:37;;;;;;;13.57;12.20;;;8.00;99.90;;;;;;5061720;28;47948;-77
2023/11/27 12:20:13;;;;;;;14.40;12.90;;;8.00;99.90;;;;;;5068541;28;38198;-76
2023/11/27 12:22:44;;;;;;;13.50;11.97;;;8.00;99.90;;;;;;5084278;28;47167;-77
2023/11/27 12:25:11;;;;;;;13.00;11.90;;;7.90;99.90;;;;;;5067498;28;38542;-75
2023/11/27 12:27:46;;;;;;;13.50;12.20;;;7.90;99.90;;;;;;5071294;28;38588;-76
2023/11/27 12:30:20;;;;;;;13.83;12.53;;;7.90;99.90;;;;;;5069410;28;37513;-74
2023/11/27 12:33:19;;;;;;;15.10;13.67;;;7.90;99.90;;;;;;5061607;28;39274;-75
2023/11/27 12:35:50;;;;;;;15.20;13.70;;;7.90;99.90;;;;;;5056049;28;48608;-75
2023/11/27 12:38:19;;;;;;;15.38;13.98;;;7.90;99.90;;;;;;5070546;28;38424;-77
2023/11/27 12:40:49;;;;;;;16.60;15.00;;;7.90;99.90;;;;;;5049065;28;37880;-75
2023/11/27 12:43:18;;;;;;;18.23;15.90;;;7.90;99.90;;;;;;5060338;28;39851;-76
2023/11/27 12:46:05;;;;;;;16.43;14.67;;;7.90;99.90;;;;;;5067355;28;39133;-75
2023/11/27 12:48:34;;;;;;;14.53;13.13;;;7.90;99.90;;;;;;5063473;28;48837;-75
2023/11/27 12:51:01;;;;;;;16.03;14.43;;;7.90;99.90;;;;;;5067949;28;38459;-74
2023/11/27 12:53:33;;;;;;;17.43;15.60;;;7.90;99.90;;;;;;5064263;28;47683;-75
2023/11/27 12:55:59;;;;;;;15.93;14.38;;;7.90;99.90;;;;;;5057248;28;37878;-74
2023/11/27 12:58:27;;;;;;;16.87;15.13;;;7.90;99.90;;;;;;5066481;28;38336;-75
2023/11/27 13:00:56;;;;;;;14.90;13.47;;;8.00;99.90;;;;;;5066664;28;37539;-76
2023/11/27 13:03:28;;;;;;;14.17;12.80;;;7.90;99.90;;;;;;5070176;28;39872;-74
2023/11/27 13:05:59;;;;;;;15.40;13.95;;;8.00;99.90;;;;;;5056495;28;39675;-77
2023/11/27 13:08:44;;;;;;;15.57;14.07;;;8.00;99.90;;;;;;5055516;28;42666;-76
2023/11/27 13:11:31;;;;;;;15.03;13.67;;;8.10;99.90;;;;;;5053768;28;38030;-76
2023/11/27 13:14:12;;;;;;;16.97;15.27;;;8.10;99.90;;;;;;5050402;28;38971;-76
2023/11/27 13:16:42;;;;;;;17.40;15.40;;;8.10;99.90;;;;;;5030125;28;49235;-75
2023/11/27 13:19:12;;;;;;;16.77;15.00;;;8.10;99.90;;;;;;5064941;28;38049;-76
2023/11/27 13:22:00;;;;;;;16.17;14.50;;;8.10;99.90;;;;;;5053818;28;37945;-77
2023/11/27 13:25:05;;;;;;;15.67;14.17;;;8.10;99.90;;;;;;5027909;28;40832;-75